Bucks, Ohio
Current Conditions -  °F | °C
As of 12:53 PM on Tuesday 21 Oct 2014 (Local Time) from KPHD Reporting Station
Overcast Overcast  
Wind Chill: 53°   Ceiling: 2700
Heat Index: 53°   Visibility: 10mi
Dew Point: 47°   Wind: 7mph
Humidity: 80%   Direction: 340°NNW
Pressure: 29.93"   Gusts: NA
Location:  40.4489°N, 81.6949°W
Report Text: KPHD 211653Z AUTO 34006KT 10SM SCT018 BKN027 OVC085 12/08 A2993 RMK AO2 SLP138 T01170083
Loading
Personal Weather Stations






























Interactive Weather Map
Tropical Storm Tracking
New forecast layout! Learn more

10-Day Weather Forecast

Advertisements
Track Severe Weather on mobile